Mark L — WDC2718 — position and weather

sailwx.info

Track history (hours):
 
Tides and Currents Weather Stations Pressure Air Temp Water Temp Dewpoint Dewpoint Depression Visibility Wind Speed Wind Dir Waves Ship Positions

Mark L

Owner: Kirby Inland Marine, LP, Houston, TX. More information available from US FCC via Universal Licensing System and Coast Guard Vessel Documentation Center.

Last reported at 2017-Sep-17 18:35 UTC. Time now 2017-Sep-22 22:35 UTC.
Position N 29°29' W 094°52'.

Length 207 m.

Type: . MMSI: 366996760.

Date/timePositionNaut miles runAvg speedWind from/ knotsBaromVisibWave heightAir tempDewpointWater temp
2017-Sep-17 18:35N 29°29' W 094°52'0 5.1
2017-Sep-17 18:30N 29°30' W 094°52'2 5.0
2017-Sep-17 18:00N 29°32' W 094°54'2 5.0
2017-Sep-17 17:30N 29°34' W 094°55'3 5.1
2017-Sep-17 17:00N 29°36' W 094°57'3 5.3
2017-Sep-17 16:30N 29°38' W 094°58'3 5.4
2017-Sep-17 16:00N 29°41' W 094°59'3 5.1
2017-Sep-17 15:29N 29°42' W 095°01'2 4.3
2017-Sep-17 15:00N 29°44' W 095°03'3 4.5
2017-Sep-17 14:21N 29°46' W 095°05'  
2017-Sep-15 09:22N 29°45' W 095°10'3 5.7
2017-Sep-15 08:49N 29°45' W 095°06'2 6.0
2017-Sep-15 08:28N 29°46' W 095°05'1 0.1
2017-Sep-15 04:13N 29°47' W 095°05'1 0.1
2017-Sep-14 19:11N 29°46' W 095°04'0 0.4
2017-Sep-14 18:57N 29°46' W 095°04'1 0.0
2017-Sep-12 23:27N 29°46' W 095°05'1 2.5
2017-Sep-12 22:58N 29°47' W 095°04'0 0.0
2017-Sep-12 20:46N 29°47' W 095°04'0 0.0
2017-Sep-12 17:49N 29°47' W 095°05'0 0.0
2017-Sep-12 17:03N 29°47' W 095°05'1 0.2
2017-Sep-12 12:23N 29°46' W 095°05'1 2.4
2017-Sep-12 11:52N 29°47' W 095°04'0 0.1
2017-Sep-12 09:44N 29°47' W 095°04'0 0.7
2017-Sep-12 09:30N 29°47' W 095°04'0 0.0
2017-Sep-12 08:58N 29°47' W 095°04'0 0.0
2017-Sep-12 08:25N 29°47' W 095°04'0 0.0
2017-Sep-12 07:54N 29°47' W 095°04'0 0.0
2017-Sep-12 07:28N 29°47' W 095°04'0 0.2
2017-Sep-12 06:30N 29°47' W 095°04'0 0.2
2017-Sep-12 05:54N 29°47' W 095°04'0 0.1
2017-Sep-12 05:22N 29°47' W 095°04'1 2.3
2017-Sep-12 04:55N 29°46' W 095°05'0 0.0
2017-Sep-12 00:40N 29°46' W 095°05'1 0.5
2017-Sep-11 22:40N 29°45' W 095°06'1 0.1
2017-Sep-11 18:13N 29°46' W 095°05'1 0.1
2017-Sep-11 09:44N 29°46' W 095°05'1 0.3
2017-Sep-11 07:21N 29°46' W 095°05'2 3.6
2017-Sep-11 06:49N 29°44' W 095°07'3 6.1
2017-Sep-11 06:16N 29°45' W 095°11'1 0.3
2017-Sep-11 04:26N 29°45' W 095°11'4 5.7
2017-Sep-11 03:45N 29°44' W 095°07'2 1.1
2017-Sep-11 02:02N 29°46' W 095°05'0 5.2
2017-Sep-11 01:59N 29°46' W 095°05'0 0.4
2017-Sep-11 01:17N 29°45' W 095°06'0 0.0
2017-Sep-10 22:54N 29°46' W 095°06'1 0.7
2017-Sep-10 22:02N 29°45' W 095°06'0 0.0
2017-Sep-10 21:59N 29°45' W 095°06'0 0.0
2017-Sep-10 20:37N 29°45' W 095°06'0 0.0
2017-Sep-10 17:36N 29°45' W 095°06'0 0.0
2017-Sep-10 16:10N 29°45' W 095°06'0 0.0
2017-Sep-10 14:43N 29°45' W 095°06'0 0.0
2017-Sep-10 13:55N 29°45' W 095°06'0 0.0
2017-Sep-10 13:26N 29°45' W 095°06'0 0.0
2017-Sep-10 13:00N 29°45' W 095°06'0 0.0
2017-Sep-10 12:30N 29°45' W 095°06'0 0.0
2017-Sep-10 11:59N 29°45' W 095°06'0 0.0
2017-Sep-10 11:29N 29°45' W 095°06'0 0.0
2017-Sep-10 10:27N 29°45' W 095°06'0 0.0
2017-Sep-10 10:00N 29°45' W 095°06'0 0.0
2017-Sep-10 09:30N 29°45' W 095°06'0 0.0
2017-Sep-10 08:57N 29°45' W 095°06'0 0.0
2017-Sep-10 08:30N 29°45' W 095°06'0 0.0
2017-Sep-10 07:58N 29°45' W 095°06'0 0.0
2017-Sep-10 07:26N 29°45' W 095°06'0 0.0
2017-Sep-10 07:00N 29°45' W 095°06'0 0.0
2017-Sep-10 06:29N 29°45' W 095°06'0 0.0
2017-Sep-10 05:59N 29°45' W 095°06'0 0.0
2017-Sep-10 05:27N 29°45' W 095°06'0 0.0
2017-Sep-10 04:56N 29°45' W 095°06'0 0.8
2017-Sep-10 04:24N 29°45' W 095°06'0 0.3
2017-Sep-10 04:00N 29°45' W 095°06'1 1.0
2017-Sep-10 02:45N 29°46' W 095°04'1 0.1
2017-Sep-09 10:31N 29°46' W 095°06'0 6.7
2017-Sep-09 10:30N 29°46' W 095°05'2 2.4
2017-Sep-09 09:42N 29°47' W 095°04'0 0.2
2017-Sep-09 09:30N 29°47' W 095°04'2 2.7
2017-Sep-09 08:56N 29°46' W 095°05'2 5.3
2017-Sep-09 08:30N 29°44' W 095°03'2 4.7
2017-Sep-09 08:00N 29°42' W 095°01'2 5.0
2017-Sep-09 07:30N 29°41' W 094°59'3 5.6
2017-Sep-09 07:00N 29°38' W 094°58'3 5.8
2017-Sep-09 06:30N 29°36' W 094°56'3 5.8
2017-Sep-09 06:00N 29°33' W 094°55'3 5.6
2017-Sep-09 05:30N 29°31' W 094°53'60 3.4
2017-Sep-08 11:55N 29°58' W 093°52'0 0.0
2017-Sep-08 11:25N 29°58' W 093°52'  
Track history (hours):
 
Tides and Currents Weather Stations Pressure Air Temp Water Temp Dewpoint Dewpoint Depression Visibility Wind Speed Wind Dir Waves Ship Positions

Mark L

Owner: Kirby Inland Marine, LP, Houston, TX. More information available from US FCC via Universal Licensing System and Coast Guard Vessel Documentation Center.

Last reported at 2017-Sep-17 18:35 UTC. Time now 2017-Sep-22 22:35 UTC.
Position N 29°29' W 094°52'.

Length 207 m.

Type: . MMSI: 366996760.

Date/timePositionNaut miles runAvg speedWind from/ knotsBaromVisibWave heightAir tempDewpointWater temp
2017-Sep-17 18:35N 29°29' W 094°52'0 5.1
2017-Sep-17 18:30N 29°30' W 094°52'2 5.0
2017-Sep-17 18:00N 29°32' W 094°54'2 5.0
2017-Sep-17 17:30N 29°34' W 094°55'3 5.1
2017-Sep-17 17:00N 29°36' W 094°57'3 5.3
2017-Sep-17 16:30N 29°38' W 094°58'3 5.4
2017-Sep-17 16:00N 29°41' W 094°59'3 5.1
2017-Sep-17 15:29N 29°42' W 095°01'2 4.3
2017-Sep-17 15:00N 29°44' W 095°03'3 4.5
2017-Sep-17 14:21N 29°46' W 095°05'  
2017-Sep-15 09:22N 29°45' W 095°10'3 5.7
2017-Sep-15 08:49N 29°45' W 095°06'2 6.0
2017-Sep-15 08:28N 29°46' W 095°05'1 0.1
2017-Sep-15 04:13N 29°47' W 095°05'1 0.1
2017-Sep-14 19:11N 29°46' W 095°04'0 0.4
2017-Sep-14 18:57N 29°46' W 095°04'1 0.0
2017-Sep-12 23:27N 29°46' W 095°05'1 2.5
2017-Sep-12 22:58N 29°47' W 095°04'0 0.0
2017-Sep-12 20:46N 29°47' W 095°04'0 0.0
2017-Sep-12 17:49N 29°47' W 095°05'0 0.0
2017-Sep-12 17:03N 29°47' W 095°05'1 0.2
2017-Sep-12 12:23N 29°46' W 095°05'1 2.4
2017-Sep-12 11:52N 29°47' W 095°04'0 0.1
2017-Sep-12 09:44N 29°47' W 095°04'0 0.7
2017-Sep-12 09:30N 29°47' W 095°04'0 0.0
2017-Sep-12 08:58N 29°47' W 095°04'0 0.0
2017-Sep-12 08:25N 29°47' W 095°04'0 0.0
2017-Sep-12 07:54N 29°47' W 095°04'0 0.0
2017-Sep-12 07:28N 29°47' W 095°04'0 0.2
2017-Sep-12 06:30N 29°47' W 095°04'0 0.2
2017-Sep-12 05:54N 29°47' W 095°04'0 0.1
2017-Sep-12 05:22N 29°47' W 095°04'1 2.3
2017-Sep-12 04:55N 29°46' W 095°05'0 0.0
2017-Sep-12 00:40N 29°46' W 095°05'1 0.5
2017-Sep-11 22:40N 29°45' W 095°06'1 0.1
2017-Sep-11 18:13N 29°46' W 095°05'1 0.1
2017-Sep-11 09:44N 29°46' W 095°05'1 0.3
2017-Sep-11 07:21N 29°46' W 095°05'2 3.6
2017-Sep-11 06:49N 29°44' W 095°07'3 6.1
2017-Sep-11 06:16N 29°45' W 095°11'1 0.3
2017-Sep-11 04:26N 29°45' W 095°11'4 5.7
2017-Sep-11 03:45N 29°44' W 095°07'2 1.1
2017-Sep-11 02:02N 29°46' W 095°05'0 5.2
2017-Sep-11 01:59N 29°46' W 095°05'0 0.4
2017-Sep-11 01:17N 29°45' W 095°06'0 0.0
2017-Sep-10 22:54N 29°46' W 095°06'1 0.7
2017-Sep-10 22:02N 29°45' W 095°06'0 0.0
2017-Sep-10 21:59N 29°45' W 095°06'0 0.0
2017-Sep-10 20:37N 29°45' W 095°06'0 0.0
2017-Sep-10 17:36N 29°45' W 095°06'0 0.0
2017-Sep-10 16:10N 29°45' W 095°06'0 0.0
2017-Sep-10 14:43N 29°45' W 095°06'0 0.0
2017-Sep-10 13:55N 29°45' W 095°06'0 0.0
2017-Sep-10 13:26N 29°45' W 095°06'0 0.0
2017-Sep-10 13:00N 29°45' W 095°06'0 0.0
2017-Sep-10 12:30N 29°45' W 095°06'0 0.0
2017-Sep-10 11:59N 29°45' W 095°06'0 0.0
2017-Sep-10 11:29N 29°45' W 095°06'0 0.0
2017-Sep-10 10:27N 29°45' W 095°06'0 0.0
2017-Sep-10 10:00N 29°45' W 095°06'0 0.0
2017-Sep-10 09:30N 29°45' W 095°06'0 0.0
2017-Sep-10 08:57N 29°45' W 095°06'0 0.0
2017-Sep-10 08:30N 29°45' W 095°06'0 0.0
2017-Sep-10 07:58N 29°45' W 095°06'0 0.0
2017-Sep-10 07:26N 29°45' W 095°06'0 0.0
2017-Sep-10 07:00N 29°45' W 095°06'0 0.0
2017-Sep-10 06:29N 29°45' W 095°06'0 0.0
2017-Sep-10 05:59N 29°45' W 095°06'0 0.0
2017-Sep-10 05:27N 29°45' W 095°06'0 0.0
2017-Sep-10 04:56N 29°45' W 095°06'0 0.8
2017-Sep-10 04:24N 29°45' W 095°06'0 0.3
2017-Sep-10 04:00N 29°45' W 095°06'1 1.0
2017-Sep-10 02:45N 29°46' W 095°04'1 0.1
2017-Sep-09 10:31N 29°46' W 095°06'0 6.7
2017-Sep-09 10:30N 29°46' W 095°05'2 2.4
2017-Sep-09 09:42N 29°47' W 095°04'0 0.2
2017-Sep-09 09:30N 29°47' W 095°04'2 2.7
2017-Sep-09 08:56N 29°46' W 095°05'2 5.3
2017-Sep-09 08:30N 29°44' W 095°03'2 4.7
2017-Sep-09 08:00N 29°42' W 095°01'2 5.0
2017-Sep-09 07:30N 29°41' W 094°59'3 5.6
2017-Sep-09 07:00N 29°38' W 094°58'3 5.8
2017-Sep-09 06:30N 29°36' W 094°56'3 5.8
2017-Sep-09 06:00N 29°33' W 094°55'3 5.6
2017-Sep-09 05:30N 29°31' W 094°53'60 3.4
2017-Sep-08 11:55N 29°58' W 093°52'0 0.0
2017-Sep-08 11:25N 29°58' W 093°52'  

Dump ship's entire track history